createdAt,value
2019-03-16T00:02:15.074Z,86.20
2019-03-16T00:04:44.576Z,86.09
2019-03-16T00:07:13.995Z,86.00
2019-03-16T00:09:43.358Z,85.81
2019-03-16T00:12:12.892Z,85.84
2019-03-16T00:14:42.344Z,85.86
2019-03-16T00:17:22.927Z,85.86
2019-03-16T00:19:42.958Z,86.07
2019-03-16T00:22:12.441Z,85.94
2019-03-16T00:24:41.786Z,85.74
2019-03-16T00:27:11.133Z,85.88
2019-03-16T00:29:40.607Z,85.73
2019-03-16T00:32:13.652Z,85.90
2019-03-16T00:34:41.187Z,85.83
2019-03-16T00:37:10.514Z,85.76
2019-03-16T00:39:39.909Z,85.71
2019-03-16T00:42:09.425Z,85.95
2019-03-16T00:44:38.895Z,85.79
2019-03-16T00:47:08.358Z,85.88
2019-03-16T00:49:37.758Z,85.83
2019-03-16T00:52:07.088Z,85.73
2019-03-16T00:54:36.522Z,85.92
2019-03-16T00:57:05.940Z,85.70
2019-03-16T00:59:36.407Z,85.65
2019-03-16T01:02:05.730Z,85.53
2019-03-16T01:04:35.142Z,85.56
2019-03-16T01:07:04.498Z,85.41
2019-03-16T01:09:33.857Z,85.26
2019-03-16T01:12:03.457Z,85.46
2019-03-16T01:14:32.860Z,85.56
2019-03-16T01:17:02.237Z,85.40
2019-03-16T01:19:31.585Z,85.72
2019-03-16T01:22:00.992Z,85.38
2019-03-16T01:24:30.446Z,85.20
2019-03-16T01:27:00.058Z,85.38
2019-03-16T01:29:29.505Z,85.64
2019-03-16T01:31:58.854Z,85.19
2019-03-16T01:34:28.208Z,85.03
2019-03-16T01:36:57.617Z,85.10
2019-03-16T01:39:27.033Z,85.23
2019-03-16T01:41:56.436Z,84.83
2019-03-16T01:44:25.791Z,84.83
2019-03-16T01:46:55.271Z,84.86
2019-03-16T01:49:24.640Z,84.72
2019-03-16T01:51:54.019Z,84.64
2019-03-16T01:54:23.470Z,84.90
2019-03-16T01:56:52.849Z,84.71
2019-03-16T01:59:22.188Z,85.22
2019-03-16T02:01:51.534Z,84.95
2019-03-16T02:04:21.020Z,85.64
2019-03-16T02:06:50.416Z,85.48
2019-03-16T02:09:19.749Z,85.26
2019-03-16T02:11:49.399Z,85.18
2019-03-16T02:14:18.991Z,85.93
2019-03-16T02:16:48.326Z,86.54
2019-03-16T02:19:17.660Z,86.66
2019-03-16T02:21:47.158Z,86.63
2019-03-16T02:24:16.548Z,86.86
2019-03-16T02:26:45.931Z,86.66
2019-03-16T02:29:15.312Z,87.04
2019-03-16T02:31:44.816Z,86.82
2019-03-16T02:34:14.237Z,86.82
2019-03-16T02:36:51.879Z,86.97
2019-03-16T02:39:21.315Z,87.05
2019-03-16T02:41:50.746Z,87.34
2019-03-16T02:44:20.167Z,87.02
2019-03-16T02:46:49.522Z,87.01
2019-03-16T02:49:18.881Z,87.01
2019-03-16T02:51:48.224Z,87.41
2019-03-16T02:54:17.614Z,88.22
2019-03-16T02:56:46.989Z,89.00
2019-03-16T02:59:16.357Z,89.02
2019-03-16T03:01:45.697Z,88.60
2019-03-16T03:04:15.044Z,88.75
2019-03-16T03:06:44.420Z,88.68
2019-03-16T03:09:13.900Z,89.18
2019-03-16T03:11:43.299Z,89.02
2019-03-16T03:14:12.669Z,89.12
2019-03-16T03:16:42.127Z,89.14
2019-03-16T03:19:11.500Z,89.07
2019-03-16T03:21:40.921Z,89.01
2019-03-16T03:24:10.383Z,88.84
2019-03-16T03:26:39.747Z,88.66
2019-03-16T03:29:09.349Z,88.50
2019-03-16T03:31:38.791Z,88.33
2019-03-16T03:34:08.291Z,88.15
2019-03-16T03:36:37.767Z,88.21
2019-03-16T03:39:08.211Z,87.93
2019-03-16T03:41:37.771Z,87.88
2019-03-16T03:44:07.191Z,87.88
2019-03-16T03:46:36.556Z,87.77
2019-03-16T03:49:05.966Z,87.96
2019-03-16T03:51:35.350Z,87.88
2019-03-16T03:54:04.763Z,88.06
2019-03-16T03:56:34.158Z,88.25
2019-03-16T03:59:03.482Z,88.21
2019-03-16T04:01:32.953Z,88.05
2019-03-16T04:04:15.272Z,87.96
2019-03-16T04:06:33.466Z,87.81
2019-03-16T04:09:04.062Z,87.80
2019-03-16T04:11:33.453Z,87.89
2019-03-16T04:14:02.941Z,88.10
2019-03-16T04:16:32.385Z,88.03
2019-03-16T04:19:01.829Z,87.80
2019-03-16T04:21:31.134Z,88.07
2019-03-16T04:24:00.484Z,87.88
2019-03-16T04:26:29.890Z,87.88
2019-03-16T04:28:59.255Z,87.98
2019-03-16T04:31:28.799Z,88.29
2019-03-16T04:33:58.138Z,88.00
2019-03-16T04:36:27.513Z,88.05
2019-03-16T04:38:57.020Z,88.12
2019-03-16T04:41:26.410Z,88.29
2019-03-16T04:43:55.755Z,88.28
2019-03-16T04:46:25.113Z,88.27
2019-03-16T04:48:54.500Z,88.03
2019-03-16T04:51:23.969Z,88.15
2019-03-16T04:53:53.319Z,87.91
2019-03-16T04:56:22.907Z,87.37
2019-03-16T04:58:52.344Z,87.26
2019-03-16T05:01:21.684Z,87.45
2019-03-16T05:03:51.076Z,87.12
2019-03-16T05:06:20.555Z,87.03
2019-03-16T05:08:50.078Z,87.09
2019-03-16T05:11:19.452Z,86.42
2019-03-16T05:13:48.840Z,86.51
2019-03-16T05:16:18.352Z,86.39
2019-03-16T05:18:47.752Z,86.57
2019-03-16T05:21:17.124Z,85.92
2019-03-16T05:23:46.538Z,85.55
2019-03-16T05:26:15.939Z,85.38
2019-03-16T05:28:45.292Z,85.18
2019-03-16T05:31:14.700Z,85.29
2019-03-16T05:33:44.094Z,85.32
2019-03-16T05:36:13.437Z,84.53
2019-03-16T05:38:42.806Z,84.85
2019-03-16T05:41:12.211Z,85.30
2019-03-16T05:43:41.553Z,84.95
2019-03-16T05:46:11.037Z,84.63
2019-03-16T05:48:40.537Z,84.56
2019-03-16T05:51:09.906Z,84.44
2019-03-16T05:53:39.437Z,84.17
2019-03-16T05:56:08.899Z,84.37
2019-03-16T05:58:38.321Z,84.14
2019-03-16T06:01:07.928Z,84.03
2019-03-16T06:03:37.348Z,84.20
2019-03-16T06:06:06.790Z,84.14
2019-03-16T06:08:36.330Z,84.20
2019-03-16T06:11:06.692Z,84.07
2019-03-16T06:13:36.091Z,84.17
2019-03-16T06:16:05.459Z,84.14
2019-03-16T06:18:34.810Z,83.95
2019-03-16T06:21:04.237Z,83.81
2019-03-16T06:23:33.610Z,83.85
2019-03-16T06:26:02.964Z,84.43
2019-03-16T06:28:32.391Z,83.89
2019-03-16T06:31:01.784Z,83.94
2019-03-16T06:33:31.121Z,84.45
2019-03-16T06:36:00.468Z,84.07
2019-03-16T06:38:29.905Z,83.69
2019-03-16T06:40:59.244Z,83.62
2019-03-16T06:43:28.682Z,83.63
2019-03-16T06:45:58.097Z,83.71
2019-03-16T06:48:27.443Z,84.00
2019-03-16T06:50:56.844Z,83.62
2019-03-16T06:53:26.255Z,83.72
2019-03-16T06:55:57.045Z,83.43
2019-03-16T06:58:26.365Z,83.36
2019-03-16T07:00:57.742Z,83.34
2019-03-16T07:03:27.182Z,83.42
2019-03-16T07:05:56.526Z,83.07
2019-03-16T07:08:25.934Z,83.08
2019-03-16T07:10:55.436Z,82.65
2019-03-16T07:13:24.940Z,82.39
2019-03-16T07:15:54.319Z,82.59
2019-03-16T07:18:23.689Z,81.86
2019-03-16T07:20:53.037Z,81.90
2019-03-16T07:23:22.512Z,82.40
2019-03-16T07:25:52.101Z,82.03
2019-03-16T07:28:21.552Z,82.33
2019-03-16T07:30:50.978Z,81.12
2019-03-16T07:33:20.399Z,81.85
2019-03-16T07:35:49.851Z,81.10
2019-03-16T07:38:19.245Z,81.51
2019-03-16T07:40:48.620Z,81.97
2019-03-16T07:43:17.968Z,81.71
2019-03-16T07:45:49.741Z,81.95
2019-03-16T07:48:19.115Z,81.83
2019-03-16T07:50:50.281Z,82.13
2019-03-16T07:53:19.803Z,81.75
2019-03-16T07:55:49.214Z,81.97
2019-03-16T07:58:18.612Z,81.62
2019-03-16T08:00:47.969Z,81.59
2019-03-16T08:03:17.412Z,81.70
2019-03-16T08:05:46.783Z,81.53
2019-03-16T08:08:16.273Z,81.67
2019-03-16T08:10:45.752Z,81.76
2019-03-16T08:13:15.194Z,82.02
2019-03-16T08:15:44.665Z,82.38
2019-03-16T08:18:14.028Z,82.78
2019-03-16T08:20:43.421Z,82.66
2019-03-16T08:23:12.927Z,82.76
2019-03-16T08:25:42.310Z,83.12
2019-03-16T08:28:12.520Z,83.01
2019-03-16T08:30:41.876Z,83.41
2019-03-16T08:33:11.341Z,83.54
2019-03-16T08:35:40.736Z,83.95
2019-03-16T08:38:10.122Z,83.96
2019-03-16T08:40:39.625Z,83.55
2019-03-16T08:43:09.133Z,83.84
2019-03-16T08:45:38.487Z,83.63
2019-03-16T08:48:07.935Z,83.41
2019-03-16T08:50:37.364Z,83.33
2019-03-16T08:53:06.801Z,83.50
2019-03-16T08:55:36.200Z,84.00
2019-03-16T08:58:06.507Z,83.68
2019-03-16T09:00:35.937Z,84.03
2019-03-16T09:03:05.386Z,83.82
2019-03-16T09:05:34.769Z,83.29
2019-03-16T09:08:04.121Z,83.40
2019-03-16T09:10:33.729Z,83.42
2019-03-16T09:13:04.045Z,83.11
2019-03-16T09:15:33.454Z,83.07
2019-03-16T09:18:02.830Z,82.63
2019-03-16T09:20:32.227Z,82.76
2019-03-16T09:23:01.715Z,82.24
2019-03-16T09:25:32.009Z,82.40
2019-03-16T09:28:01.430Z,82.29
2019-03-16T09:30:30.771Z,82.55
2019-03-16T09:33:00.155Z,82.68
2019-03-16T09:35:29.781Z,82.91
2019-03-16T09:37:59.142Z,83.40
2019-03-16T09:40:28.708Z,83.47
2019-03-16T09:42:58.075Z,83.42
2019-03-16T09:45:27.449Z,83.54
2019-03-16T09:47:56.857Z,83.67
2019-03-16T09:50:26.330Z,83.52
2019-03-16T09:52:55.671Z,83.80
2019-03-16T09:55:25.035Z,83.81
2019-03-16T09:57:54.375Z,83.27
2019-03-16T10:00:23.907Z,83.60
2019-03-16T10:02:53.407Z,83.26
2019-03-16T10:05:22.833Z,83.18
2019-03-16T10:07:52.374Z,82.69
2019-03-16T10:10:21.726Z,82.90
2019-03-16T10:12:51.071Z,82.91
2019-03-16T10:15:20.443Z,82.83
2019-03-16T10:17:49.932Z,82.11
2019-03-16T10:20:19.275Z,82.45
2019-03-16T10:22:48.683Z,81.89
2019-03-16T10:25:18.110Z,81.86
2019-03-16T10:27:47.460Z,81.91
2019-03-16T10:30:16.877Z,81.98
2019-03-16T10:32:46.211Z,82.58
2019-03-16T10:35:15.587Z,82.71
2019-03-16T10:37:44.947Z,83.23
2019-03-16T10:40:14.530Z,82.41
2019-03-16T10:42:44.030Z,83.08
2019-03-16T10:45:13.501Z,83.05
2019-03-16T10:47:43.011Z,82.71
2019-03-16T10:50:12.583Z,82.21
2019-03-16T10:52:42.063Z,82.21
2019-03-16T10:55:11.594Z,81.04
2019-03-16T10:57:41.129Z,81.60
2019-03-16T11:00:10.994Z,82.16
2019-03-16T11:02:40.400Z,81.94
2019-03-16T11:05:09.723Z,81.78
2019-03-16T11:07:39.094Z,81.63
2019-03-16T11:10:08.603Z,81.20
2019-03-16T11:12:37.996Z,81.95
2019-03-16T11:15:07.909Z,82.02
2019-03-16T11:17:37.376Z,82.69
2019-03-16T11:20:07.347Z,81.96
2019-03-16T11:22:36.766Z,81.34
2019-03-16T11:25:06.496Z,81.63
2019-03-16T11:27:35.869Z,81.40
2019-03-16T11:30:05.721Z,80.13
2019-03-16T11:32:35.150Z,79.41
2019-03-16T11:35:04.826Z,80.27
2019-03-16T11:37:34.286Z,79.18
2019-03-16T11:40:03.648Z,79.68
2019-03-16T11:42:32.983Z,79.66
2019-03-16T11:45:02.358Z,79.56
2019-03-16T11:47:31.879Z,80.84
2019-03-16T11:50:01.279Z,80.63
2019-03-16T11:52:30.718Z,81.05
2019-03-16T11:55:00.172Z,80.88
2019-03-16T11:57:29.812Z,81.58
2019-03-16T11:59:59.370Z,81.97
2019-03-16T12:02:28.907Z,82.17
2019-03-16T12:04:58.290Z,82.25
2019-03-16T12:07:27.723Z,82.01
2019-03-16T12:09:57.155Z,82.54
2019-03-16T12:12:26.572Z,82.04
2019-03-16T12:14:56.072Z,81.93
2019-03-16T12:17:25.462Z,82.25
2019-03-16T12:19:54.834Z,82.41
2019-03-16T12:22:24.289Z,82.91
2019-03-16T12:24:53.725Z,82.89
2019-03-16T12:27:23.063Z,83.01
2019-03-16T12:29:54.039Z,83.05
2019-03-16T12:32:23.501Z,83.57
2019-03-16T12:34:53.197Z,83.43
2019-03-16T12:37:22.975Z,82.97
2019-03-16T12:39:52.387Z,82.89
2019-03-16T12:42:21.766Z,82.40
2019-03-16T12:44:51.165Z,82.96
2019-03-16T12:47:20.492Z,82.82
2019-03-16T12:49:49.910Z,83.59
2019-03-16T12:52:19.351Z,83.26
2019-03-16T12:54:48.796Z,83.22
2019-03-16T12:57:18.261Z,83.08
2019-03-16T12:59:47.635Z,83.16
2019-03-16T13:02:16.981Z,83.73
2019-03-16T13:04:46.361Z,83.85
2019-03-16T13:07:15.785Z,84.77
2019-03-16T13:09:45.175Z,84.38
2019-03-16T13:12:14.777Z,84.54
2019-03-16T13:14:47.552Z,84.63
2019-03-16T13:17:17.067Z,84.64
2019-03-16T13:19:46.426Z,84.94
2019-03-16T13:22:15.943Z,85.43
2019-03-16T13:24:45.402Z,85.70
2019-03-16T13:27:14.753Z,86.35
2019-03-16T13:29:44.125Z,85.98
2019-03-16T13:32:13.569Z,86.04
2019-03-16T13:34:43.092Z,86.51
2019-03-16T13:37:12.500Z,86.57
2019-03-16T13:39:41.825Z,86.97
2019-03-16T13:42:11.184Z,86.78
2019-03-16T13:44:40.567Z,87.06
2019-03-16T13:47:10.036Z,86.68
2019-03-16T13:49:39.491Z,87.16
2019-03-16T13:52:08.929Z,87.07
2019-03-16T13:54:38.562Z,87.45
2019-03-16T13:57:07.943Z,86.95
2019-03-16T13:59:37.462Z,87.52
2019-03-16T14:02:06.842Z,87.21
2019-03-16T14:04:36.601Z,87.09
2019-03-16T14:07:06.103Z,87.37
2019-03-16T14:09:35.651Z,87.29
2019-03-16T14:12:05.375Z,87.17
2019-03-16T14:14:34.777Z,87.54
2019-03-16T14:17:04.218Z,87.66
2019-03-16T14:19:33.687Z,87.89
2019-03-16T14:22:03.181Z,87.83
2019-03-16T14:24:32.554Z,88.56
2019-03-16T14:27:02.281Z,88.20
2019-03-16T14:29:31.753Z,88.09
2019-03-16T14:32:01.120Z,88.10
2019-03-16T14:34:30.948Z,88.57
2019-03-16T14:37:00.363Z,88.56
2019-03-16T14:39:29.741Z,88.35
2019-03-16T14:41:59.124Z,88.49
2019-03-16T14:44:28.632Z,88.66
2019-03-16T14:46:57.968Z,88.95
2019-03-16T14:49:27.459Z,89.00
2019-03-16T14:51:56.860Z,89.58
2019-03-16T14:54:26.228Z,89.21
2019-03-16T14:56:55.608Z,89.57
2019-03-16T14:59:25.013Z,89.62
2019-03-16T15:01:54.487Z,89.24
2019-03-16T15:04:23.837Z,89.31
2019-03-16T15:06:53.230Z,89.52
2019-03-16T15:09:22.616Z,89.52
2019-03-16T15:11:52.166Z,89.48
2019-03-16T15:14:22.280Z,89.68
2019-03-16T15:16:51.743Z,89.70
2019-03-16T15:19:21.137Z,90.03
2019-03-16T15:21:50.590Z,89.95
2019-03-16T15:24:20.064Z,90.12
2019-03-16T15:26:49.445Z,90.46
2019-03-16T15:29:18.854Z,90.75
2019-03-16T15:31:48.274Z,90.84
2019-03-16T15:34:17.632Z,91.06
2019-03-16T15:36:47.008Z,91.24
2019-03-16T15:39:16.915Z,91.12
2019-03-16T15:41:46.429Z,91.12
2019-03-16T15:44:15.861Z,91.04
2019-03-16T15:46:45.216Z,90.93
2019-03-16T15:49:14.699Z,90.91
2019-03-16T15:51:44.173Z,91.14
2019-03-16T15:54:13.582Z,91.27
2019-03-16T15:56:42.989Z,91.17
2019-03-16T15:59:12.381Z,91.16
2019-03-16T16:01:41.831Z,91.05
2019-03-16T16:04:11.214Z,91.18
2019-03-16T16:06:40.631Z,91.25
2019-03-16T16:09:09.983Z,91.40
2019-03-16T16:11:39.341Z,91.54
2019-03-16T16:14:08.704Z,91.48
2019-03-16T16:16:38.240Z,91.49
2019-03-16T16:19:07.645Z,91.79
2019-03-16T16:21:37.023Z,91.71
2019-03-16T16:24:06.391Z,91.73
2019-03-16T16:26:35.800Z,91.47
2019-03-16T16:29:05.307Z,91.65
2019-03-16T16:31:35.018Z,91.87
2019-03-16T16:34:04.413Z,91.69
2019-03-16T16:36:33.795Z,91.90
2019-03-16T16:39:04.075Z,92.02
2019-03-16T16:41:33.662Z,92.04
2019-03-16T16:44:03.087Z,91.95
2019-03-16T16:46:32.550Z,91.79
2019-03-16T16:49:01.904Z,91.82
2019-03-16T16:51:31.314Z,91.81
2019-03-16T16:54:00.670Z,91.53
2019-03-16T16:56:30.132Z,91.96
2019-03-16T16:58:59.529Z,91.86
2019-03-16T17:01:29.769Z,91.61
2019-03-16T17:03:59.261Z,91.89
2019-03-16T17:06:28.668Z,92.05
2019-03-16T17:08:58.055Z,91.95
2019-03-16T17:11:27.933Z,92.23
2019-03-16T17:13:57.479Z,92.46
2019-03-16T17:16:26.898Z,92.39
2019-03-16T17:18:56.375Z,92.24
2019-03-16T17:21:25.802Z,92.33
2019-03-16T17:23:55.147Z,92.28
2019-03-16T17:26:24.524Z,92.23
2019-03-16T17:28:54.137Z,92.43
2019-03-16T17:31:26.653Z,92.29
2019-03-16T17:33:56.484Z,92.32
2019-03-16T17:36:25.891Z,92.51
2019-03-16T17:38:55.419Z,92.41
2019-03-16T17:41:25.029Z,92.47
2019-03-16T17:43:54.572Z,92.57
2019-03-16T17:46:23.987Z,92.68
2019-03-16T17:48:53.347Z,92.93
2019-03-16T17:51:22.724Z,92.67
2019-03-16T17:53:52.171Z,92.84
2019-03-16T17:56:22.188Z,92.84
2019-03-16T17:58:52.001Z,93.02
2019-03-16T18:01:21.858Z,93.18
2019-03-16T18:03:51.306Z,93.14
2019-03-16T18:06:20.651Z,93.37
2019-03-16T18:08:50.092Z,93.21
2019-03-16T18:11:19.806Z,92.80
2019-03-16T18:13:49.198Z,93.19
2019-03-16T18:16:18.564Z,93.10
2019-03-16T18:18:47.947Z,93.13
2019-03-16T18:21:17.324Z,93.11
2019-03-16T18:23:46.860Z,93.14
2019-03-16T18:26:16.237Z,93.21
2019-03-16T18:28:45.569Z,93.01
2019-03-16T18:31:14.932Z,92.98
2019-03-16T18:33:44.321Z,93.05
2019-03-16T18:36:13.669Z,92.87
2019-03-16T18:38:43.179Z,92.83
2019-03-16T18:41:12.528Z,92.76
2019-03-16T18:43:41.906Z,92.72
2019-03-16T18:46:11.323Z,92.85
2019-03-16T18:48:40.701Z,92.85
2019-03-16T18:51:10.120Z,92.84
2019-03-16T18:53:39.592Z,92.92
2019-03-16T18:56:09.048Z,92.80
2019-03-16T18:58:38.401Z,92.92
2019-03-16T19:01:08.567Z,92.85
2019-03-16T19:03:38.100Z,92.69
2019-03-16T19:06:07.541Z,92.87
2019-03-16T19:08:36.896Z,92.64
2019-03-16T19:11:06.448Z,92.83
2019-03-16T19:13:35.855Z,92.87
2019-03-16T19:16:05.190Z,92.61
2019-03-16T19:18:34.807Z,92.68
2019-03-16T19:21:04.488Z,92.65
2019-03-16T19:23:34.197Z,92.89
2019-03-16T19:26:03.541Z,92.54
2019-03-16T19:28:33.187Z,92.40
2019-03-16T19:31:02.691Z,92.76
2019-03-16T19:33:32.061Z,92.67
2019-03-16T19:36:01.412Z,92.13
2019-03-16T19:38:30.795Z,92.29
2019-03-16T19:41:00.193Z,92.21
2019-03-16T19:43:29.875Z,91.96
2019-03-16T19:46:00.697Z,92.28
2019-03-16T19:48:30.161Z,92.22
2019-03-16T19:50:59.524Z,92.35
2019-03-16T19:53:28.888Z,92.46
2019-03-16T19:55:58.318Z,92.66
2019-03-16T19:58:27.648Z,92.90
2019-03-16T20:00:57.037Z,92.62
2019-03-16T20:03:26.386Z,92.56
2019-03-16T20:05:55.755Z,92.54
2019-03-16T20:08:25.136Z,92.33
2019-03-16T20:11:05.923Z,92.37
2019-03-16T20:13:25.562Z,92.45
2019-03-16T20:15:55.345Z,92.24
2019-03-16T20:18:24.882Z,92.45
2019-03-16T20:20:54.218Z,92.58
2019-03-16T20:23:23.613Z,92.61
2019-03-16T20:25:53.036Z,92.29
2019-03-16T20:28:22.469Z,92.48
2019-03-16T20:30:51.833Z,92.35
2019-03-16T20:33:21.241Z,92.24
2019-03-16T20:35:50.705Z,92.09
2019-03-16T20:38:20.280Z,92.33
2019-03-16T20:40:50.555Z,92.17
2019-03-16T20:43:20.108Z,92.28
2019-03-16T20:45:49.736Z,91.79
2019-03-16T20:48:19.051Z,92.04
2019-03-16T20:50:48.647Z,91.93
2019-03-16T20:53:18.129Z,92.19
2019-03-16T20:55:47.497Z,92.21
2019-03-16T20:58:16.879Z,92.22
2019-03-16T21:00:46.379Z,91.99
2019-03-16T21:03:16.624Z,91.64
2019-03-16T21:05:46.015Z,91.84
2019-03-16T21:08:15.363Z,91.67
2019-03-16T21:10:44.727Z,91.45
2019-03-16T21:13:14.212Z,91.72
2019-03-16T21:15:46.576Z,91.90
2019-03-16T21:18:16.142Z,91.87
2019-03-16T21:20:45.540Z,91.60
2019-03-16T21:23:14.872Z,91.44
2019-03-16T21:25:44.360Z,91.33
2019-03-16T21:28:15.892Z,91.39
2019-03-16T21:30:44.977Z,91.43
2019-03-16T21:33:14.324Z,91.33
2019-03-16T21:35:43.673Z,91.24
2019-03-16T21:38:13.021Z,91.19
2019-03-16T21:40:42.426Z,91.44
2019-03-16T21:43:11.854Z,91.51
2019-03-16T21:45:41.220Z,91.25
2019-03-16T21:48:10.596Z,91.10
2019-03-16T21:50:39.978Z,91.15
2019-03-16T21:53:09.392Z,91.09
2019-03-16T21:55:38.739Z,91.00
2019-03-16T21:58:09.349Z,90.68
2019-03-16T22:00:39.171Z,90.87
2019-03-16T22:03:08.758Z,90.53
2019-03-16T22:05:38.215Z,90.62
2019-03-16T22:08:07.720Z,90.64
2019-03-16T22:10:37.170Z,90.74
2019-03-16T22:13:06.607Z,90.85
2019-03-16T22:15:36.018Z,90.86
2019-03-16T22:18:05.369Z,90.70
2019-03-16T22:20:34.717Z,90.97
2019-03-16T22:23:06.228Z,90.96
2019-03-16T22:25:35.247Z,90.70
2019-03-16T22:28:04.803Z,90.86
2019-03-16T22:30:34.367Z,90.97
2019-03-16T22:33:03.706Z,90.78
2019-03-16T22:35:33.301Z,90.73
2019-03-16T22:38:02.654Z,90.97
2019-03-16T22:40:32.296Z,90.98
2019-03-16T22:43:01.793Z,90.91
2019-03-16T22:45:31.140Z,90.67
2019-03-16T22:48:00.505Z,90.82
2019-03-16T22:50:30.200Z,91.07
2019-03-16T22:52:59.577Z,91.21
2019-03-16T22:55:28.939Z,91.03
2019-03-16T22:57:58.370Z,90.84
2019-03-16T23:00:37.009Z,90.69
2019-03-16T23:03:05.600Z,90.93
2019-03-16T23:05:34.940Z,91.00
2019-03-16T23:08:04.297Z,90.85
2019-03-16T23:10:33.816Z,90.73
2019-03-16T23:13:03.155Z,90.86
2019-03-16T23:15:32.476Z,91.04
2019-03-16T23:18:01.947Z,90.74
2019-03-16T23:20:31.453Z,91.02
2019-03-16T23:23:00.798Z,90.79
2019-03-16T23:25:30.250Z,90.96
2019-03-16T23:27:59.574Z,90.97
2019-03-16T23:30:29.023Z,90.94
2019-03-16T23:32:58.426Z,90.95
2019-03-16T23:35:27.728Z,91.02
2019-03-16T23:37:57.123Z,90.95
2019-03-16T23:40:26.752Z,90.99
2019-03-16T23:42:56.186Z,90.93
2019-03-16T23:45:25.551Z,90.90
2019-03-16T23:47:54.969Z,90.68
2019-03-16T23:50:24.388Z,90.78
2019-03-16T23:52:53.741Z,91.03
2019-03-16T23:55:23.117Z,91.05
2019-03-16T23:57:52.491Z,90.53
